sensor_id;sensor_type;location;lat;lon;timestamp;temperature;humidity
66328;DHT22;53133;52.862;6.602;2023-02-22T00:00:22;9.90;99.90
66328;DHT22;53133;52.862;6.602;2023-02-22T00:02:55;9.90;99.90
66328;DHT22;53133;52.862;6.602;2023-02-22T00:05:26;9.90;99.90
66328;DHT22;53133;52.862;6.602;2023-02-22T00:07:53;9.90;99.90
66328;DHT22;53133;52.862;6.602;2023-02-22T00:10:22;9.90;99.90
66328;DHT22;53133;52.862;6.602;2023-02-22T00:12:53;9.90;99.90
66328;DHT22;53133;52.862;6.602;2023-02-22T00:15:22;9.90;99.90
66328;DHT22;53133;52.862;6.602;2023-02-22T00:17:52;9.80;99.90
66328;DHT22;53133;52.862;6.602;2023-02-22T00:20:18;9.90;99.90
66328;DHT22;53133;52.862;6.602;2023-02-22T00:22:46;9.80;99.90
66328;DHT22;53133;52.862;6.602;2023-02-22T00:25:16;9.90;99.90
66328;DHT22;53133;52.862;6.602;2023-02-22T00:27:43;9.80;99.90
66328;DHT22;53133;52.862;6.602;2023-02-22T00:30:14;9.80;99.90
66328;DHT22;53133;52.862;6.602;2023-02-22T00:32:44;9.80;99.90
66328;DHT22;53133;52.862;6.602;2023-02-22T00:35:10;9.80;99.90
66328;DHT22;53133;52.862;6.602;2023-02-22T00:37:35;9.80;99.90
66328;DHT22;53133;52.862;6.602;2023-02-22T00:40:01;9.80;99.90
66328;DHT22;53133;52.862;6.602;2023-02-22T00:42:26;9.80;99.90
66328;DHT22;53133;52.862;6.602;2023-02-22T00:44:52;9.80;99.90
66328;DHT22;53133;52.862;6.602;2023-02-22T00:47:17;9.70;99.90
66328;DHT22;53133;52.862;6.602;2023-02-22T00:49:43;9.80;99.90
66328;DHT22;53133;52.862;6.602;2023-02-22T00:52:08;9.80;99.90
66328;DHT22;53133;52.862;6.602;2023-02-22T00:54:34;9.80;99.90
66328;DHT22;53133;52.862;6.602;2023-02-22T00:57:01;9.70;99.90
66328;DHT22;53133;52.862;6.602;2023-02-22T00:59:27;9.70;99.90
66328;DHT22;53133;52.862;6.602;2023-02-22T01:01:52;9.70;99.90
66328;DHT22;53133;52.862;6.602;2023-02-22T01:04:18;9.70;99.90
66328;DHT22;53133;52.862;6.602;2023-02-22T01:06:44;9.70;99.90
66328;DHT22;53133;52.862;6.602;2023-02-22T01:09:09;9.70;99.90
66328;DHT22;53133;52.862;6.602;2023-02-22T01:11:35;9.70;99.90
66328;DHT22;53133;52.862;6.602;2023-02-22T01:14:00;9.70;99.90
66328;DHT22;53133;52.862;6.602;2023-02-22T01:16:26;9.70;99.90
66328;DHT22;53133;52.862;6.602;2023-02-22T01:18:52;9.70;99.90
66328;DHT22;53133;52.862;6.602;2023-02-22T01:21:17;9.70;99.90
66328;DHT22;53133;52.862;6.602;2023-02-22T01:23:45;9.70;99.90
66328;DHT22;53133;52.862;6.602;2023-02-22T01:26:11;9.70;99.90
66328;DHT22;53133;52.862;6.602;2023-02-22T01:28:37;9.70;99.90
66328;DHT22;53133;52.862;6.602;2023-02-22T01:31:03;9.70;99.90
66328;DHT22;53133;52.862;6.602;2023-02-22T01:33:29;9.70;99.90
66328;DHT22;53133;52.862;6.602;2023-02-22T01:35:55;9.70;99.90
66328;DHT22;53133;52.862;6.602;2023-02-22T01:38:21;9.70;99.90
66328;DHT22;53133;52.862;6.602;2023-02-22T01:40:49;9.60;99.90
66328;DHT22;53133;52.862;6.602;2023-02-22T01:43:25;9.70;99.90
66328;DHT22;53133;52.862;6.602;2023-02-22T01:46:03;9.60;99.90
66328;DHT22;53133;52.862;6.602;2023-02-22T01:48:39;9.60;99.90
66328;DHT22;53133;52.862;6.602;2023-02-22T01:51:17;9.60;99.90
66328;DHT22;53133;52.862;6.602;2023-02-22T01:53:56;9.60;99.90
66328;DHT22;53133;52.862;6.602;2023-02-22T01:56:24;9.60;99.90
66328;DHT22;53133;52.862;6.602;2023-02-22T01:58:54;9.60;99.90
66328;DHT22;53133;52.862;6.602;2023-02-22T02:01:22;9.60;99.90
66328;DHT22;53133;52.862;6.602;2023-02-22T02:03:49;9.60;99.90
66328;DHT22;53133;52.862;6.602;2023-02-22T02:06:18;9.60;99.90
66328;DHT22;53133;52.862;6.602;2023-02-22T02:08:58;9.60;99.90
66328;DHT22;53133;52.862;6.602;2023-02-22T02:11:26;9.60;99.90
66328;DHT22;53133;52.862;6.602;2023-02-22T02:13:54;9.60;99.90
66328;DHT22;53133;52.862;6.602;2023-02-22T02:16:25;9.60;99.90
66328;DHT22;53133;52.862;6.602;2023-02-22T02:18:51;9.60;99.90
66328;DHT22;53133;52.862;6.602;2023-02-22T02:21:41;9.60;99.90
66328;DHT22;53133;52.862;6.602;2023-02-22T02:27:17;9.60;99.90
66328;DHT22;53133;52.862;6.602;2023-02-22T02:29:55;9.60;99.90
66328;DHT22;53133;52.862;6.602;2023-02-22T02:32:56;9.50;99.90
66328;DHT22;53133;52.862;6.602;2023-02-22T02:41:17;9.50;99.90
66328;DHT22;53133;52.862;6.602;2023-02-22T02:46:34;9.50;99.90
66328;DHT22;53133;52.862;6.602;2023-02-22T02:49:06;9.60;99.90
66328;DHT22;53133;52.862;6.602;2023-02-22T02:51:37;9.50;99.90
66328;DHT22;53133;52.862;6.602;2023-02-22T02:54:05;9.50;99.90
66328;DHT22;53133;52.862;6.602;2023-02-22T02:56:32;9.50;99.90
66328;DHT22;53133;52.862;6.602;2023-02-22T02:58:57;9.50;99.90
66328;DHT22;53133;52.862;6.602;2023-02-22T03:01:56;9.50;99.90
66328;DHT22;53133;52.862;6.602;2023-02-22T03:04:40;9.50;99.90
66328;DHT22;53133;52.862;6.602;2023-02-22T03:13:23;9.50;99.90
66328;DHT22;53133;52.862;6.602;2023-02-22T03:24:36;9.40;99.90
66328;DHT22;53133;52.862;6.602;2023-02-22T03:27:19;9.40;99.90
66328;DHT22;53133;52.862;6.602;2023-02-22T03:29:50;9.40;99.90
66328;DHT22;53133;52.862;6.602;2023-02-22T03:32:21;9.40;99.90
66328;DHT22;53133;52.862;6.602;2023-02-22T03:34:52;9.40;99.90
66328;DHT22;53133;52.862;6.602;2023-02-22T03:37:24;9.40;99.90
66328;DHT22;53133;52.862;6.602;2023-02-22T03:39:51;9.40;99.90
66328;DHT22;53133;52.862;6.602;2023-02-22T03:42:29;9.40;99.90
66328;DHT22;53133;52.862;6.602;2023-02-22T03:44:59;9.40;99.90
66328;DHT22;53133;52.862;6.602;2023-02-22T03:47:37;9.40;99.90
66328;DHT22;53133;52.862;6.602;2023-02-22T03:50:25;9.40;99.90
66328;DHT22;53133;52.862;6.602;2023-02-22T03:52:54;9.30;99.90
66328;DHT22;53133;52.862;6.602;2023-02-22T03:55:23;9.30;99.90
66328;DHT22;53133;52.862;6.602;2023-02-22T03:57:51;9.30;99.90
66328;DHT22;53133;52.862;6.602;2023-02-22T04:00:22;9.30;99.90
66328;DHT22;53133;52.862;6.602;2023-02-22T04:02:48;9.40;99.90
66328;DHT22;53133;52.862;6.602;2023-02-22T04:05:15;9.30;99.90
66328;DHT22;53133;52.862;6.602;2023-02-22T04:07:42;9.30;99.90
66328;DHT22;53133;52.862;6.602;2023-02-22T04:10:08;9.30;99.90
66328;DHT22;53133;52.862;6.602;2023-02-22T04:12:35;9.30;99.90
66328;DHT22;53133;52.862;6.602;2023-02-22T04:15:01;9.30;99.90
66328;DHT22;53133;52.862;6.602;2023-02-22T04:17:27;9.20;99.90
66328;DHT22;53133;52.862;6.602;2023-02-22T04:19:52;9.20;99.90
66328;DHT22;53133;52.862;6.602;2023-02-22T04:22:18;9.20;99.90
66328;DHT22;53133;52.862;6.602;2023-02-22T04:24:44;9.20;99.90
66328;DHT22;53133;52.862;6.602;2023-02-22T04:27:10;9.20;99.90
66328;DHT22;53133;52.862;6.602;2023-02-22T04:29:36;9.20;99.90
66328;DHT22;53133;52.862;6.602;2023-02-22T04:32:01;9.20;99.90
66328;DHT22;53133;52.862;6.602;2023-02-22T04:34:27;9.10;99.90
66328;DHT22;53133;52.862;6.602;2023-02-22T04:36:52;9.10;99.90
66328;DHT22;53133;52.862;6.602;2023-02-22T04:39:18;9.10;99.90
66328;DHT22;53133;52.862;6.602;2023-02-22T04:41:43;9.10;99.90
66328;DHT22;53133;52.862;6.602;2023-02-22T04:44:09;9.10;99.90
66328;DHT22;53133;52.862;6.602;2023-02-22T04:46:34;9.10;99.90
66328;DHT22;53133;52.862;6.602;2023-02-22T04:49:00;9.10;99.90
66328;DHT22;53133;52.862;6.602;2023-02-22T04:51:26;9.10;99.90
66328;DHT22;53133;52.862;6.602;2023-02-22T04:53:51;9.10;99.90
66328;DHT22;53133;52.862;6.602;2023-02-22T04:56:18;9.10;99.90
66328;DHT22;53133;52.862;6.602;2023-02-22T04:58:43;9.00;99.90
66328;DHT22;53133;52.862;6.602;2023-02-22T05:01:09;9.10;99.90
66328;DHT22;53133;52.862;6.602;2023-02-22T05:03:37;9.10;99.90
66328;DHT22;53133;52.862;6.602;2023-02-22T05:06:02;9.10;99.90
66328;DHT22;53133;52.862;6.602;2023-02-22T05:08:28;9.10;99.90
66328;DHT22;53133;52.862;6.602;2023-02-22T05:10:54;9.10;99.90
66328;DHT22;53133;52.862;6.602;2023-02-22T05:13:20;9.10;99.90
66328;DHT22;53133;52.862;6.602;2023-02-22T05:15:46;9.00;99.90
66328;DHT22;53133;52.862;6.602;2023-02-22T05:18:12;9.10;99.90
66328;DHT22;53133;52.862;6.602;2023-02-22T05:20:38;9.10;99.90
66328;DHT22;53133;52.862;6.602;2023-02-22T05:23:04;9.10;99.90
66328;DHT22;53133;52.862;6.602;2023-02-22T05:25:31;9.10;99.90
66328;DHT22;53133;52.862;6.602;2023-02-22T05:28:03;9.10;99.90
66328;DHT22;53133;52.862;6.602;2023-02-22T05:30:34;9.10;99.90
66328;DHT22;53133;52.862;6.602;2023-02-22T05:33:00;9.10;99.90
66328;DHT22;53133;52.862;6.602;2023-02-22T05:35:26;9.10;99.90
66328;DHT22;53133;52.862;6.602;2023-02-22T05:37:52;9.10;99.90
66328;DHT22;53133;52.862;6.602;2023-02-22T05:40:19;9.00;99.90
66328;DHT22;53133;52.862;6.602;2023-02-22T05:42:45;9.00;99.90
66328;DHT22;53133;52.862;6.602;2023-02-22T05:45:12;9.00;99.90
66328;DHT22;53133;52.862;6.602;2023-02-22T05:47:38;9.00;99.90
66328;DHT22;53133;52.862;6.602;2023-02-22T05:50:04;9.00;99.90
66328;DHT22;53133;52.862;6.602;2023-02-22T05:52:30;9.00;99.90
66328;DHT22;53133;52.862;6.602;2023-02-22T05:54:56;9.00;99.90
66328;DHT22;53133;52.862;6.602;2023-02-22T05:57:21;8.90;99.90
66328;DHT22;53133;52.862;6.602;2023-02-22T05:59:47;9.00;99.90
66328;DHT22;53133;52.862;6.602;2023-02-22T06:02:12;8.90;99.90
66328;DHT22;53133;52.862;6.602;2023-02-22T06:04:38;9.00;99.90
66328;DHT22;53133;52.862;6.602;2023-02-22T06:07:04;9.00;99.90
66328;DHT22;53133;52.862;6.602;2023-02-22T06:09:30;8.90;99.90
66328;DHT22;53133;52.862;6.602;2023-02-22T06:11:56;8.90;99.90
66328;DHT22;53133;52.862;6.602;2023-02-22T06:14:22;8.90;99.90
66328;DHT22;53133;52.862;6.602;2023-02-22T06:16:55;8.90;99.90
66328;DHT22;53133;52.862;6.602;2023-02-22T06:19:21;8.80;99.90
66328;DHT22;53133;52.862;6.602;2023-02-22T06:21:55;8.80;99.90
66328;DHT22;53133;52.862;6.602;2023-02-22T06:24:22;8.80;99.90
66328;DHT22;53133;52.862;6.602;2023-02-22T06:26:59;8.80;99.90
66328;DHT22;53133;52.862;6.602;2023-02-22T06:29:26;8.90;99.90
66328;DHT22;53133;52.862;6.602;2023-02-22T06:31:52;8.80;99.90
66328;DHT22;53133;52.862;6.602;2023-02-22T06:34:18;8.80;99.90
66328;DHT22;53133;52.862;6.602;2023-02-22T06:36:46;8.70;99.90
66328;DHT22;53133;52.862;6.602;2023-02-22T06:39:13;8.70;99.90
66328;DHT22;53133;52.862;6.602;2023-02-22T06:41:43;8.70;99.90
66328;DHT22;53133;52.862;6.602;2023-02-22T06:44:10;8.70;99.90
66328;DHT22;53133;52.862;6.602;2023-02-22T06:46:37;8.70;99.90
66328;DHT22;53133;52.862;6.602;2023-02-22T06:49:03;8.70;99.90
66328;DHT22;53133;52.862;6.602;2023-02-22T06:51:29;8.60;99.90
66328;DHT22;53133;52.862;6.602;2023-02-22T06:53:54;8.70;99.90
66328;DHT22;53133;52.862;6.602;2023-02-22T06:56:20;8.70;99.90
66328;DHT22;53133;52.862;6.602;2023-02-22T06:58:46;8.70;99.90
66328;DHT22;53133;52.862;6.602;2023-02-22T07:01:14;8.60;99.90
66328;DHT22;53133;52.862;6.602;2023-02-22T07:03:39;8.70;99.90
66328;DHT22;53133;52.862;6.602;2023-02-22T07:06:06;8.70;99.90
66328;DHT22;53133;52.862;6.602;2023-02-22T07:08:32;8.60;99.90
66328;DHT22;53133;52.862;6.602;2023-02-22T07:10:58;8.60;99.90
66328;DHT22;53133;52.862;6.602;2023-02-22T07:13:23;8.70;99.90
66328;DHT22;53133;52.862;6.602;2023-02-22T07:15:49;8.70;99.90
66328;DHT22;53133;52.862;6.602;2023-02-22T07:18:14;8.70;99.90
66328;DHT22;53133;52.862;6.602;2023-02-22T07:20:41;8.70;99.90
66328;DHT22;53133;52.862;6.602;2023-02-22T07:23:06;8.70;99.90
66328;DHT22;53133;52.862;6.602;2023-02-22T07:25:32;8.70;99.90
66328;DHT22;53133;52.862;6.602;2023-02-22T07:27:58;8.60;99.90
66328;DHT22;53133;52.862;6.602;2023-02-22T07:30:30;8.60;99.90
66328;DHT22;53133;52.862;6.602;2023-02-22T07:33:00;8.60;99.90
66328;DHT22;53133;52.862;6.602;2023-02-22T07:35:34;8.60;99.90
66328;DHT22;53133;52.862;6.602;2023-02-22T07:38:02;8.60;99.90
66328;DHT22;53133;52.862;6.602;2023-02-22T07:40:28;8.60;99.90
66328;DHT22;53133;52.862;6.602;2023-02-22T07:43:09;8.70;99.90
66328;DHT22;53133;52.862;6.602;2023-02-22T07:45:38;8.60;99.90
66328;DHT22;53133;52.862;6.602;2023-02-22T07:48:05;8.60;99.90
66328;DHT22;53133;52.862;6.602;2023-02-22T07:50:31;8.60;99.90
66328;DHT22;53133;52.862;6.602;2023-02-22T07:53:03;8.60;99.90
66328;DHT22;53133;52.862;6.602;2023-02-22T07:55:30;8.60;99.90
66328;DHT22;53133;52.862;6.602;2023-02-22T07:58:01;8.70;99.90
66328;DHT22;53133;52.862;6.602;2023-02-22T08:00:32;8.60;99.90
66328;DHT22;53133;52.862;6.602;2023-02-22T08:03:02;8.70;99.90
66328;DHT22;53133;52.862;6.602;2023-02-22T08:05:29;8.70;99.90
66328;DHT22;53133;52.862;6.602;2023-02-22T08:07:55;8.70;99.90
66328;DHT22;53133;52.862;6.602;2023-02-22T08:10:22;8.70;99.90
66328;DHT22;53133;52.862;6.602;2023-02-22T08:12:49;8.70;99.90
66328;DHT22;53133;52.862;6.602;2023-02-22T08:15:27;8.70;99.90
66328;DHT22;53133;52.862;6.602;2023-02-22T08:17:53;8.70;99.90
66328;DHT22;53133;52.862;6.602;2023-02-22T08:20:20;8.70;99.90
66328;DHT22;53133;52.862;6.602;2023-02-22T08:22:46;8.70;99.90
66328;DHT22;53133;52.862;6.602;2023-02-22T08:25:14;8.70;99.90
66328;DHT22;53133;52.862;6.602;2023-02-22T08:27:40;8.70;99.90
66328;DHT22;53133;52.862;6.602;2023-02-22T08:30:07;8.70;99.90
66328;DHT22;53133;52.862;6.602;2023-02-22T08:32:33;8.80;99.90
66328;DHT22;53133;52.862;6.602;2023-02-22T08:35:01;8.70;99.90
66328;DHT22;53133;52.862;6.602;2023-02-22T08:37:26;8.80;99.90
66328;DHT22;53133;52.862;6.602;2023-02-22T08:39:52;8.80;99.90
66328;DHT22;53133;52.862;6.602;2023-02-22T08:42:18;8.80;99.90
66328;DHT22;53133;52.862;6.602;2023-02-22T08:44:44;8.80;99.90
66328;DHT22;53133;52.862;6.602;2023-02-22T08:47:09;8.90;99.90
66328;DHT22;53133;52.862;6.602;2023-02-22T08:49:35;8.90;99.90
66328;DHT22;53133;52.862;6.602;2023-02-22T08:52:01;8.90;99.90
66328;DHT22;53133;52.862;6.602;2023-02-22T08:54:26;8.90;99.90
66328;DHT22;53133;52.862;6.602;2023-02-22T08:56:52;8.90;99.90
66328;DHT22;53133;52.862;6.602;2023-02-22T08:59:18;8.90;99.90
66328;DHT22;53133;52.862;6.602;2023-02-22T09:01:43;8.90;99.90
66328;DHT22;53133;52.862;6.602;2023-02-22T09:04:09;8.90;99.90
66328;DHT22;53133;52.862;6.602;2023-02-22T09:06:35;8.90;99.90
66328;DHT22;53133;52.862;6.602;2023-02-22T09:09:01;8.90;99.90
66328;DHT22;53133;52.862;6.602;2023-02-22T09:11:27;8.90;99.90
66328;DHT22;53133;52.862;6.602;2023-02-22T09:13:52;8.90;99.90
66328;DHT22;53133;52.862;6.602;2023-02-22T09:16:18;8.90;99.90
66328;DHT22;53133;52.862;6.602;2023-02-22T09:18:44;8.90;99.90
66328;DHT22;53133;52.862;6.602;2023-02-22T09:21:10;8.90;99.90
66328;DHT22;53133;52.862;6.602;2023-02-22T09:23:36;9.00;99.90
66328;DHT22;53133;52.862;6.602;2023-02-22T09:26:01;9.00;99.90
66328;DHT22;53133;52.862;6.602;2023-02-22T09:28:27;9.00;99.90
66328;DHT22;53133;52.862;6.602;2023-02-22T09:30:53;9.00;99.90
66328;DHT22;53133;52.862;6.602;2023-02-22T09:33:19;9.00;99.90
66328;DHT22;53133;52.862;6.602;2023-02-22T09:35:47;9.00;99.90
66328;DHT22;53133;52.862;6.602;2023-02-22T09:38:19;9.00;99.90
66328;DHT22;53133;52.862;6.602;2023-02-22T09:40:53;9.10;99.90
66328;DHT22;53133;52.862;6.602;2023-02-22T09:46:20;9.10;99.90
66328;DHT22;53133;52.862;6.602;2023-02-22T09:51:44;9.10;99.90
66328;DHT22;53133;52.862;6.602;2023-02-22T09:54:20;9.20;99.90
66328;DHT22;53133;52.862;6.602;2023-02-22T09:56:49;9.10;99.90
66328;DHT22;53133;52.862;6.602;2023-02-22T09:59:26;9.10;99.90
66328;DHT22;53133;52.862;6.602;2023-02-22T10:01:58;9.10;99.90
66328;DHT22;53133;52.862;6.602;2023-02-22T10:07:22;9.20;99.90
66328;DHT22;53133;52.862;6.602;2023-02-22T10:09:51;9.30;99.90
66328;DHT22;53133;52.862;6.602;2023-02-22T10:18:24;9.30;99.90
66328;DHT22;53133;52.862;6.602;2023-02-22T10:26:21;9.30;99.90
66328;DHT22;53133;52.862;6.602;2023-02-22T10:31:35;9.20;99.90
66328;DHT22;53133;52.862;6.602;2023-02-22T10:34:08;9.20;99.90
66328;DHT22;53133;52.862;6.602;2023-02-22T10:36:37;9.20;99.90
66328;DHT22;53133;52.862;6.602;2023-02-22T10:41:52;9.20;99.90
66328;DHT22;53133;52.862;6.602;2023-02-22T10:44:19;9.20;99.90
66328;DHT22;53133;52.862;6.602;2023-02-22T10:46:45;9.20;99.90
66328;DHT22;53133;52.862;6.602;2023-02-22T10:49:20;9.30;99.90
66328;DHT22;53133;52.862;6.602;2023-02-22T10:51:59;9.40;99.90
66328;DHT22;53133;52.862;6.602;2023-02-22T10:54:31;9.40;99.90
66328;DHT22;53133;52.862;6.602;2023-02-22T10:56:59;9.40;99.90
66328;DHT22;53133;52.862;6.602;2023-02-22T11:01:52;9.40;99.90
66328;DHT22;53133;52.862;6.602;2023-02-22T11:04:18;9.50;99.90
66328;DHT22;53133;52.862;6.602;2023-02-22T11:06:48;9.50;99.90
66328;DHT22;53133;52.862;6.602;2023-02-22T11:09:18;9.50;99.90
66328;DHT22;53133;52.862;6.602;2023-02-22T11:11:48;9.50;99.90
66328;DHT22;53133;52.862;6.602;2023-02-22T11:14:34;9.50;99.90
66328;DHT22;53133;52.862;6.602;2023-02-22T11:17:00;9.50;99.90
66328;DHT22;53133;52.862;6.602;2023-02-22T11:19:31;9.50;99.90
66328;DHT22;53133;52.862;6.602;2023-02-22T11:24:54;9.50;99.90
66328;DHT22;53133;52.862;6.602;2023-02-22T11:27:24;9.50;99.90
66328;DHT22;53133;52.862;6.602;2023-02-22T11:29:51;9.50;99.90
66328;DHT22;53133;52.862;6.602;2023-02-22T11:32:18;9.50;99.90
66328;DHT22;53133;52.862;6.602;2023-02-22T11:34:47;9.60;99.90
66328;DHT22;53133;52.862;6.602;2023-02-22T11:37:32;9.60;99.90
66328;DHT22;53133;52.862;6.602;2023-02-22T11:40:19;9.70;99.90
66328;DHT22;53133;52.862;6.602;2023-02-22T11:42:47;9.70;99.90
66328;DHT22;53133;52.862;6.602;2023-02-22T11:45:19;9.70;99.90
66328;DHT22;53133;52.862;6.602;2023-02-22T11:47:58;9.80;99.90
66328;DHT22;53133;52.862;6.602;2023-02-22T11:50:43;9.80;99.90
66328;DHT22;53133;52.862;6.602;2023-02-22T11:58:43;9.90;99.90
66328;DHT22;53133;52.862;6.602;2023-02-22T12:01:18;9.90;99.90
66328;DHT22;53133;52.862;6.602;2023-02-22T12:07:15;9.90;99.90
66328;DHT22;53133;52.862;6.602;2023-02-22T12:09:54;9.90;99.90
66328;DHT22;53133;52.862;6.602;2023-02-22T12:12:52;9.90;99.90
66328;DHT22;53133;52.862;6.602;2023-02-22T12:15:40;10.00;99.90
66328;DHT22;53133;52.862;6.602;2023-02-22T12:18:09;10.10;99.90
66328;DHT22;53133;52.862;6.602;2023-02-22T12:20:57;10.10;99.90
66328;DHT22;53133;52.862;6.602;2023-02-22T12:23:25;10.20;99.90
66328;DHT22;53133;52.862;6.602;2023-02-22T12:26:08;10.20;99.90
66328;DHT22;53133;52.862;6.602;2023-02-22T12:28:46;10.30;99.90
66328;DHT22;53133;52.862;6.602;2023-02-22T12:31:27;10.30;99.90
66328;DHT22;53133;52.862;6.602;2023-02-22T12:36:39;10.30;99.90
66328;DHT22;53133;52.862;6.602;2023-02-22T12:39:36;10.20;99.90
66328;DHT22;53133;52.862;6.602;2023-02-22T12:42:11;10.30;99.90
66328;DHT22;53133;52.862;6.602;2023-02-22T12:44:40;10.30;99.90
66328;DHT22;53133;52.862;6.602;2023-02-22T12:47:15;10.30;99.90
66328;DHT22;53133;52.862;6.602;2023-02-22T12:49:58;10.30;99.90
66328;DHT22;53133;52.862;6.602;2023-02-22T12:52:45;10.30;99.90
66328;DHT22;53133;52.862;6.602;2023-02-22T12:55:46;10.30;99.90
66328;DHT22;53133;52.862;6.602;2023-02-22T12:58:22;10.30;99.90
66328;DHT22;53133;52.862;6.602;2023-02-22T13:00:59;10.30;99.90
66328;DHT22;53133;52.862;6.602;2023-02-22T13:03:33;10.40;99.90
66328;DHT22;53133;52.862;6.602;2023-02-22T13:06:31;10.30;99.90
66328;DHT22;53133;52.862;6.602;2023-02-22T13:14:57;10.40;99.90
66328;DHT22;53133;52.862;6.602;2023-02-22T13:17:33;10.40;99.90
66328;DHT22;53133;52.862;6.602;2023-02-22T13:20:37;10.40;99.90
66328;DHT22;53133;52.862;6.602;2023-02-22T13:23:30;10.40;99.90
66328;DHT22;53133;52.862;6.602;2023-02-22T13:26:09;10.50;99.90
66328;DHT22;53133;52.862;6.602;2023-02-22T13:28:50;10.50;99.90
66328;DHT22;53133;52.862;6.602;2023-02-22T13:34:20;10.50;99.90
66328;DHT22;53133;52.862;6.602;2023-02-22T13:37:06;10.50;99.90
66328;DHT22;53133;52.862;6.602;2023-02-22T13:52:54;10.70;99.90
66328;DHT22;53133;52.862;6.602;2023-02-22T13:55:26;10.70;99.90
66328;DHT22;53133;52.862;6.602;2023-02-22T13:58:06;10.80;99.90
66328;DHT22;53133;52.862;6.602;2023-02-22T14:03:27;10.80;99.90
66328;DHT22;53133;52.862;6.602;2023-02-22T14:05:58;10.80;99.90
66328;DHT22;53133;52.862;6.602;2023-02-22T14:13:23;10.80;99.90
66328;DHT22;53133;52.862;6.602;2023-02-22T14:18:23;10.80;99.90
66328;DHT22;53133;52.862;6.602;2023-02-22T14:21:12;10.70;99.90
66328;DHT22;53133;52.862;6.602;2023-02-22T14:26:31;10.70;99.90
66328;DHT22;53133;52.862;6.602;2023-02-22T14:31:55;10.70;99.90
66328;DHT22;53133;52.862;6.602;2023-02-22T14:34:50;10.70;99.90
66328;DHT22;53133;52.862;6.602;2023-02-22T14:37:27;10.70;99.90
66328;DHT22;53133;52.862;6.602;2023-02-22T14:42:50;10.70;99.90
66328;DHT22;53133;52.862;6.602;2023-02-22T14:45:24;10.60;99.90
66328;DHT22;53133;52.862;6.602;2023-02-22T14:50:57;10.70;99.90
66328;DHT22;53133;52.862;6.602;2023-02-22T14:53:36;10.60;99.90
66328;DHT22;53133;52.862;6.602;2023-02-22T14:56:13;10.60;99.90
66328;DHT22;53133;52.862;6.602;2023-02-22T14:58:42;10.60;99.90
66328;DHT22;53133;52.862;6.602;2023-02-22T15:01:30;10.60;99.90
66328;DHT22;53133;52.862;6.602;2023-02-22T15:04:09;10.60;99.90
66328;DHT22;53133;52.862;6.602;2023-02-22T15:06:40;10.60;99.90
66328;DHT22;53133;52.862;6.602;2023-02-22T15:09:21;10.60;99.90
66328;DHT22;53133;52.862;6.602;2023-02-22T15:12:08;10.70;99.90
66328;DHT22;53133;52.862;6.602;2023-02-22T15:14:38;10.70;99.90
66328;DHT22;53133;52.862;6.602;2023-02-22T15:17:23;10.70;99.90
66328;DHT22;53133;52.862;6.602;2023-02-22T15:19:50;10.70;99.90
66328;DHT22;53133;52.862;6.602;2023-02-22T15:22:29;10.70;99.90
66328;DHT22;53133;52.862;6.602;2023-02-22T15:25:05;10.70;99.90
66328;DHT22;53133;52.862;6.602;2023-02-22T15:27:33;10.70;99.90
66328;DHT22;53133;52.862;6.602;2023-02-22T15:30:20;10.70;99.90
66328;DHT22;53133;52.862;6.602;2023-02-22T15:32:47;10.70;99.90
66328;DHT22;53133;52.862;6.602;2023-02-22T15:35:23;10.70;99.90
66328;DHT22;53133;52.862;6.602;2023-02-22T15:40:36;10.70;99.90
66328;DHT22;53133;52.862;6.602;2023-02-22T15:43:17;10.60;99.90
66328;DHT22;53133;52.862;6.602;2023-02-22T15:45:44;10.70;99.90
66328;DHT22;53133;52.862;6.602;2023-02-22T15:48:10;10.70;99.90
66328;DHT22;53133;52.862;6.602;2023-02-22T15:50:36;10.70;99.90
66328;DHT22;53133;52.862;6.602;2023-02-22T15:53:06;10.70;99.90
66328;DHT22;53133;52.862;6.602;2023-02-22T15:55:42;10.70;99.90
66328;DHT22;53133;52.862;6.602;2023-02-22T16:00:45;10.60;99.90
66328;DHT22;53133;52.862;6.602;2023-02-22T16:03:19;10.60;99.90
66328;DHT22;53133;52.862;6.602;2023-02-22T16:05:54;10.60;99.90
66328;DHT22;53133;52.862;6.602;2023-02-22T16:08:22;10.60;99.90
66328;DHT22;53133;52.862;6.602;2023-02-22T16:11:09;10.60;99.90
66328;DHT22;53133;52.862;6.602;2023-02-22T16:13:41;10.60;99.90
66328;DHT22;53133;52.862;6.602;2023-02-22T16:18:41;10.60;99.90
66328;DHT22;53133;52.862;6.602;2023-02-22T16:21:12;10.60;99.90
66328;DHT22;53133;52.862;6.602;2023-02-22T16:23:52;10.50;99.90
66328;DHT22;53133;52.862;6.602;2023-02-22T16:28:49;10.50;99.90
66328;DHT22;53133;52.862;6.602;2023-02-22T16:31:17;10.50;99.90
66328;DHT22;53133;52.862;6.602;2023-02-22T16:33:46;10.50;99.90
66328;DHT22;53133;52.862;6.602;2023-02-22T16:36:12;10.50;99.90
66328;DHT22;53133;52.862;6.602;2023-02-22T16:38:38;10.50;99.90
66328;DHT22;53133;52.862;6.602;2023-02-22T16:41:05;10.50;99.90
66328;DHT22;53133;52.862;6.602;2023-02-22T16:43:32;10.50;99.90
66328;DHT22;53133;52.862;6.602;2023-02-22T16:45:59;10.50;99.90
66328;DHT22;53133;52.862;6.602;2023-02-22T16:48:29;10.40;99.90
66328;DHT22;53133;52.862;6.602;2023-02-22T16:51:01;10.40;99.90
66328;DHT22;53133;52.862;6.602;2023-02-22T16:53:31;10.40;99.90
66328;DHT22;53133;52.862;6.602;2023-02-22T16:56:02;10.40;99.90
66328;DHT22;53133;52.862;6.602;2023-02-22T16:58:32;10.40;99.90
66328;DHT22;53133;52.862;6.602;2023-02-22T17:00:58;10.30;99.90
66328;DHT22;53133;52.862;6.602;2023-02-22T17:03:24;10.30;99.90
66328;DHT22;53133;52.862;6.602;2023-02-22T17:05:50;10.30;99.90
66328;DHT22;53133;52.862;6.602;2023-02-22T17:08:16;10.30;99.90
66328;DHT22;53133;52.862;6.602;2023-02-22T17:10:42;10.30;99.90
66328;DHT22;53133;52.862;6.602;2023-02-22T17:13:08;10.20;99.90
66328;DHT22;53133;52.862;6.602;2023-02-22T17:15:34;10.30;99.90
66328;DHT22;53133;52.862;6.602;2023-02-22T17:18:03;10.20;99.90
66328;DHT22;53133;52.862;6.602;2023-02-22T17:20:34;10.20;99.90
66328;DHT22;53133;52.862;6.602;2023-02-22T17:23:07;10.20;99.90
66328;DHT22;53133;52.862;6.602;2023-02-22T17:25:41;10.20;99.90
66328;DHT22;53133;52.862;6.602;2023-02-22T17:28:07;10.20;99.90
66328;DHT22;53133;52.862;6.602;2023-02-22T17:30:33;10.20;99.90
66328;DHT22;53133;52.862;6.602;2023-02-22T17:33:01;10.10;99.90
66328;DHT22;53133;52.862;6.602;2023-02-22T17:35:29;10.20;99.90
66328;DHT22;53133;52.862;6.602;2023-02-22T17:37:55;10.20;99.90
66328;DHT22;53133;52.862;6.602;2023-02-22T17:40:22;10.20;99.90
66328;DHT22;53133;52.862;6.602;2023-02-22T17:42:47;10.10;99.90
66328;DHT22;53133;52.862;6.602;2023-02-22T17:45:20;10.10;99.90
66328;DHT22;53133;52.862;6.602;2023-02-22T17:47:48;10.10;99.90
66328;DHT22;53133;52.862;6.602;2023-02-22T17:50:15;10.10;99.90
66328;DHT22;53133;52.862;6.602;2023-02-22T17:52:41;10.10;99.90
66328;DHT22;53133;52.862;6.602;2023-02-22T17:55:08;10.10;99.90
66328;DHT22;53133;52.862;6.602;2023-02-22T17:57:34;10.10;99.90
66328;DHT22;53133;52.862;6.602;2023-02-22T18:00:04;10.10;99.90
66328;DHT22;53133;52.862;6.602;2023-02-22T18:02:41;10.10;99.90
66328;DHT22;53133;52.862;6.602;2023-02-22T18:05:08;10.10;99.90